sensor_id;sensor_type;location;lat;lon;timestamp;pressure;altitude;pressure_sealevel;temperature;humidity
47240;BME280;32978;53.586;10.052;2023-02-18T00:01:15;101580.00;;;5.56;100.00
47240;BME280;32978;53.586;10.052;2023-02-18T00:06:31;101574.00;;;5.54;100.00
47240;BME280;32978;53.586;10.052;2023-02-18T00:11:29;101572.19;;;5.64;100.00
47240;BME280;32978;53.586;10.052;2023-02-18T00:16:29;101568.13;;;5.67;100.00
47240;BME280;32978;53.586;10.052;2023-02-18T00:21:25;101571.59;;;5.57;100.00
47240;BME280;32978;53.586;10.052;2023-02-18T00:26:22;101586.25;;;5.61;100.00
47240;BME280;32978;53.586;10.052;2023-02-18T00:31:21;101594.88;;;5.48;100.00
47240;BME280;32978;53.586;10.052;2023-02-18T00:36:19;101589.94;;;5.45;100.00
47240;BME280;32978;53.586;10.052;2023-02-18T00:41:17;101602.44;;;5.41;100.00
47240;BME280;32978;53.586;10.052;2023-02-18T00:46:15;101595.91;;;5.42;100.00
47240;BME280;32978;53.586;10.052;2023-02-18T00:51:11;101599.16;;;5.39;100.00
47240;BME280;32978;53.586;10.052;2023-02-18T00:56:08;101608.91;;;5.40;100.00
47240;BME280;32978;53.586;10.052;2023-02-18T01:01:06;101613.22;;;5.36;100.00
47240;BME280;32978;53.586;10.052;2023-02-18T01:06:04;101602.69;;;5.39;100.00
47240;BME280;32978;53.586;10.052;2023-02-18T01:11:03;101619.75;;;5.40;100.00
47240;BME280;32978;53.586;10.052;2023-02-18T01:16:00;101604.56;;;5.39;100.00
47240;BME280;32978;53.586;10.052;2023-02-18T01:20:58;101606.19;;;5.40;100.00
47240;BME280;32978;53.586;10.052;2023-02-18T01:25:56;101623.78;;;5.32;100.00
47240;BME280;32978;53.586;10.052;2023-02-18T01:30:53;101615.38;;;5.34;100.00
47240;BME280;32978;53.586;10.052;2023-02-18T01:35:51;101619.16;;;5.33;100.00
47240;BME280;32978;53.586;10.052;2023-02-18T01:40:50;101607.75;;;5.31;100.00
47240;BME280;32978;53.586;10.052;2023-02-18T01:51:12;101609.88;;;5.23;100.00
47240;BME280;32978;53.586;10.052;2023-02-18T01:56:14;101599.84;;;5.24;100.00
47240;BME280;32978;53.586;10.052;2023-02-18T02:01:12;101591.47;;;5.25;100.00
47240;BME280;32978;53.586;10.052;2023-02-18T02:06:14;101586.03;;;5.25;100.00
47240;BME280;32978;53.586;10.052;2023-02-18T02:11:42;101585.22;;;5.25;100.00
47240;BME280;32978;53.586;10.052;2023-02-18T02:17:03;101588.22;;;5.28;100.00
47240;BME280;32978;53.586;10.052;2023-02-18T02:27:21;101589.84;;;5.24;100.00
47240;BME280;32978;53.586;10.052;2023-02-18T02:37:53;101584.38;;;5.19;100.00
47240;BME280;32978;53.586;10.052;2023-02-18T02:43:01;101573.50;;;5.14;100.00
47240;BME280;32978;53.586;10.052;2023-02-18T02:48:14;101574.00;;;5.11;100.00
47240;BME280;32978;53.586;10.052;2023-02-18T02:53:22;101564.78;;;5.12;100.00
47240;BME280;32978;53.586;10.052;2023-02-18T02:58:20;101568.06;;;5.14;100.00
47240;BME280;32978;53.586;10.052;2023-02-18T03:03:28;101556.69;;;5.17;100.00
47240;BME280;32978;53.586;10.052;2023-02-18T03:08:40;101540.97;;;5.19;100.00
47240;BME280;32978;53.586;10.052;2023-02-18T03:24:23;101545.84;;;5.17;100.00
47240;BME280;32978;53.586;10.052;2023-02-18T03:29:22;101549.69;;;5.21;100.00
47240;BME280;32978;53.586;10.052;2023-02-18T03:34:25;101562.41;;;5.21;100.00
47240;BME280;32978;53.586;10.052;2023-02-18T03:39:25;101557.81;;;5.21;100.00
47240;BME280;32978;53.586;10.052;2023-02-18T03:44:24;101564.03;;;5.22;100.00
47240;BME280;32978;53.586;10.052;2023-02-18T03:49:21;101557.31;;;5.24;100.00
47240;BME280;32978;53.586;10.052;2023-02-18T03:54:18;101545.63;;;5.24;100.00
47240;BME280;32978;53.586;10.052;2023-02-18T03:59:15;101542.66;;;5.25;100.00
47240;BME280;32978;53.586;10.052;2023-02-18T04:04:11;101542.66;;;5.25;100.00
47240;BME280;32978;53.586;10.052;2023-02-18T04:09:08;101547.53;;;5.28;100.00
47240;BME280;32978;53.586;10.052;2023-02-18T04:14:05;101547.03;;;5.32;100.00
47240;BME280;32978;53.586;10.052;2023-02-18T04:19:02;101540.19;;;5.24;100.00
47240;BME280;32978;53.586;10.052;2023-02-18T04:23:59;101538.28;;;5.19;100.00
47240;BME280;32978;53.586;10.052;2023-02-18T04:28:56;101533.91;;;5.13;100.00
47240;BME280;32978;53.586;10.052;2023-02-18T04:33:52;101522.50;;;5.11;100.00
47240;BME280;32978;53.586;10.052;2023-02-18T04:38:48;101515.44;;;5.10;100.00
47240;BME280;32978;53.586;10.052;2023-02-18T04:43:45;101512.94;;;5.03;100.00
47240;BME280;32978;53.586;10.052;2023-02-18T04:48:41;101511.28;;;4.92;100.00
47240;BME280;32978;53.586;10.052;2023-02-18T04:53:38;101505.25;;;4.85;100.00
47240;BME280;32978;53.586;10.052;2023-02-18T04:58:34;101505.53;;;4.89;100.00
47240;BME280;32978;53.586;10.052;2023-02-18T05:03:31;101520.47;;;4.91;100.00
47240;BME280;32978;53.586;10.052;2023-02-18T05:08:28;101501.84;;;5.00;100.00
47240;BME280;32978;53.586;10.052;2023-02-18T05:13:24;101503.19;;;4.97;100.00
47240;BME280;32978;53.586;10.052;2023-02-18T05:18:21;101501.25;;;4.93;100.00
47240;BME280;32978;53.586;10.052;2023-02-18T05:23:17;101507.16;;;4.90;100.00
47240;BME280;32978;53.586;10.052;2023-02-18T05:28:15;101504.44;;;4.84;100.00
47240;BME280;32978;53.586;10.052;2023-02-18T05:33:12;101498.41;;;4.77;100.00
47240;BME280;32978;53.586;10.052;2023-02-18T05:38:09;101485.97;;;4.76;100.00
47240;BME280;32978;53.586;10.052;2023-02-18T05:43:05;101488.63;;;4.71;100.00
47240;BME280;32978;53.586;10.052;2023-02-18T05:48:02;101486.47;;;4.73;100.00
47240;BME280;32978;53.586;10.052;2023-02-18T05:52:58;101479.94;;;4.69;100.00
47240;BME280;32978;53.586;10.052;2023-02-18T05:57:55;101480.16;;;4.62;100.00
47240;BME280;32978;53.586;10.052;2023-02-18T06:02:51;101492.63;;;4.63;100.00
47240;BME280;32978;53.586;10.052;2023-02-18T06:07:48;101470.66;;;4.60;100.00
47240;BME280;32978;53.586;10.052;2023-02-18T06:12:44;101474.44;;;4.59;100.00
47240;BME280;32978;53.586;10.052;2023-02-18T06:17:40;101481.44;;;4.55;100.00
47240;BME280;32978;53.586;10.052;2023-02-18T06:22:37;101463.00;;;4.52;100.00
47240;BME280;32978;53.586;10.052;2023-02-18T06:27:33;101434.28;;;4.46;100.00
47240;BME280;32978;53.586;10.052;2023-02-18T06:32:30;101419.63;;;4.41;100.00
47240;BME280;32978;53.586;10.052;2023-02-18T06:37:26;101424.47;;;4.39;100.00
47240;BME280;32978;53.586;10.052;2023-02-18T06:42:23;101427.16;;;4.39;100.00
47240;BME280;32978;53.586;10.052;2023-02-18T06:47:19;101413.06;;;4.37;100.00
47240;BME280;32978;53.586;10.052;2023-02-18T06:52:15;101402.84;;;4.45;100.00
47240;BME280;32978;53.586;10.052;2023-02-18T06:57:12;101378.00;;;4.53;100.00
47240;BME280;32978;53.586;10.052;2023-02-18T07:02:14;101374.19;;;4.54;100.00
47240;BME280;32978;53.586;10.052;2023-02-18T07:07:10;101357.41;;;4.57;100.00
47240;BME280;32978;53.586;10.052;2023-02-18T07:12:07;101352.56;;;4.64;100.00
47240;BME280;32978;53.586;10.052;2023-02-18T07:17:03;101353.69;;;4.68;100.00
47240;BME280;32978;53.586;10.052;2023-02-18T07:22:00;101356.41;;;4.73;100.00
47240;BME280;32978;53.586;10.052;2023-02-18T07:26:56;101352.66;;;4.74;100.00
47240;BME280;32978;53.586;10.052;2023-02-18T07:31:53;101343.97;;;4.77;100.00
47240;BME280;32978;53.586;10.052;2023-02-18T07:36:49;101304.44;;;4.81;100.00
47240;BME280;32978;53.586;10.052;2023-02-18T07:41:46;101284.94;;;4.84;100.00
47240;BME280;32978;53.586;10.052;2023-02-18T07:46:43;101286.59;;;4.91;100.00
47240;BME280;32978;53.586;10.052;2023-02-18T07:51:42;101271.97;;;4.92;100.00
47240;BME280;32978;53.586;10.052;2023-02-18T07:56:39;101250.34;;;5.02;100.00
47240;BME280;32978;53.586;10.052;2023-02-18T08:01:35;101234.06;;;5.12;100.00
47240;BME280;32978;53.586;10.052;2023-02-18T08:06:40;101219.19;;;5.20;100.00
47240;BME280;32978;53.586;10.052;2023-02-18T08:11:37;101205.91;;;5.23;100.00
47240;BME280;32978;53.586;10.052;2023-02-18T08:16:34;101207.81;;;5.23;100.00
47240;BME280;32978;53.586;10.052;2023-02-18T08:21:31;101207.00;;;5.27;100.00
47240;BME280;32978;53.586;10.052;2023-02-18T08:26:28;101207.00;;;5.33;100.00
47240;BME280;32978;53.586;10.052;2023-02-18T08:31:27;101198.31;;;5.31;100.00
47240;BME280;32978;53.586;10.052;2023-02-18T08:36:23;101201.31;;;5.34;100.00
47240;BME280;32978;53.586;10.052;2023-02-18T08:41:20;101195.59;;;5.31;100.00
47240;BME280;32978;53.586;10.052;2023-02-18T08:46:16;101186.91;;;5.34;100.00
47240;BME280;32978;53.586;10.052;2023-02-18T08:51:31;101177.16;;;5.38;100.00
47240;BME280;32978;53.586;10.052;2023-02-18T08:56:28;101145.16;;;5.40;100.00
47240;BME280;32978;53.586;10.052;2023-02-18T09:01:25;101146.50;;;5.42;100.00
47240;BME280;32978;53.586;10.052;2023-02-18T09:06:21;101131.31;;;5.46;100.00
47240;BME280;32978;53.586;10.052;2023-02-18T09:11:19;101111.00;;;5.44;100.00
47240;BME280;32978;53.586;10.052;2023-02-18T09:16:17;101082.78;;;5.40;100.00
47240;BME280;32978;53.586;10.052;2023-02-18T09:21:16;101077.34;;;5.45;100.00
47240;BME280;32978;53.586;10.052;2023-02-18T09:26:16;101071.41;;;5.48;100.00
47240;BME280;32978;53.586;10.052;2023-02-18T09:31:14;101063.78;;;5.55;100.00
47240;BME280;32978;53.586;10.052;2023-02-18T09:36:14;101057.78;;;5.58;100.00
47240;BME280;32978;53.586;10.052;2023-02-18T09:46:23;101036.63;;;5.65;100.00
47240;BME280;32978;53.586;10.052;2023-02-18T09:51:21;101035.50;;;5.72;100.00
47240;BME280;32978;53.586;10.052;2023-02-18T09:56:30;101021.97;;;5.66;100.00
47240;BME280;32978;53.586;10.052;2023-02-18T10:01:31;100994.84;;;5.66;100.00
47240;BME280;32978;53.586;10.052;2023-02-18T10:06:33;100995.91;;;5.70;100.00
47240;BME280;32978;53.586;10.052;2023-02-18T10:11:35;100995.91;;;5.70;100.00
47240;BME280;32978;53.586;10.052;2023-02-18T10:16:33;100990.47;;;5.70;100.00
47240;BME280;32978;53.586;10.052;2023-02-18T10:21:32;100994.34;;;5.59;100.00
47240;BME280;32978;53.586;10.052;2023-02-18T10:26:34;100963.84;;;5.78;100.00
47240;BME280;32978;53.586;10.052;2023-02-18T10:31:35;100970.41;;;5.72;100.00
47240;BME280;32978;53.586;10.052;2023-02-18T10:36:54;100968.97;;;5.84;100.00
47240;BME280;32978;53.586;10.052;2023-02-18T10:52:51;100924.00;;;6.18;100.00
47240;BME280;32978;53.586;10.052;2023-02-18T10:57:54;100923.44;;;6.21;100.00
47240;BME280;32978;53.586;10.052;2023-02-18T11:08:19;100900.66;;;6.17;100.00
47240;BME280;32978;53.586;10.052;2023-02-18T11:13:23;100902.25;;;6.23;100.00
47240;BME280;32978;53.586;10.052;2023-02-18T11:23:20;100872.59;;;6.26;100.00
47240;BME280;32978;53.586;10.052;2023-02-18T11:33:25;100844.88;;;6.59;100.00
47240;BME280;32978;53.586;10.052;2023-02-18T11:43:30;100834.06;;;6.78;100.00
47240;BME280;32978;53.586;10.052;2023-02-18T11:48:27;100828.34;;;6.79;100.00
47240;BME280;32978;53.586;10.052;2023-02-18T11:53:27;100829.44;;;7.02;100.00
47240;BME280;32978;53.586;10.052;2023-02-18T11:58:24;100843.38;;;7.38;100.00
47240;BME280;32978;53.586;10.052;2023-02-18T12:03:32;100852.84;;;7.79;100.00
47240;BME280;32978;53.586;10.052;2023-02-18T12:08:48;100880.47;;;8.05;100.00
47240;BME280;32978;53.586;10.052;2023-02-18T12:13:55;100876.56;;;8.11;100.00
47240;BME280;32978;53.586;10.052;2023-02-18T12:19:25;100877.59;;;8.15;100.00
47240;BME280;32978;53.586;10.052;2023-02-18T12:24:33;100895.03;;;8.14;100.00
47240;BME280;32978;53.586;10.052;2023-02-18T12:29:44;100878.22;;;8.12;100.00
47240;BME280;32978;53.586;10.052;2023-02-18T12:41:44;100902.34;;;8.00;100.00
47240;BME280;32978;53.586;10.052;2023-02-18T12:46:32;100929.94;;;7.93;100.00
47240;BME280;32978;53.586;10.052;2023-02-18T12:51:56;100905.25;;;7.90;100.00
47240;BME280;32978;53.586;10.052;2023-02-18T12:57:20;100924.91;;;7.87;100.00
47240;BME280;32978;53.586;10.052;2023-02-18T13:02:29;100917.28;;;7.84;100.00
47240;BME280;32978;53.586;10.052;2023-02-18T13:13:08;100927.66;;;7.82;100.00
47240;BME280;32978;53.586;10.052;2023-02-18T13:18:15;100943.00;;;7.77;100.00
47240;BME280;32978;53.586;10.052;2023-02-18T13:23:30;100948.19;;;7.74;100.00
47240;BME280;32978;53.586;10.052;2023-02-18T13:28:29;100953.34;;;7.75;100.00
47240;BME280;32978;53.586;10.052;2023-02-18T13:33:37;100968.66;;;7.71;100.00
47240;BME280;32978;53.586;10.052;2023-02-18T13:43:53;100995.41;;;7.64;100.00
47240;BME280;32978;53.586;10.052;2023-02-18T13:54:23;100984.59;;;7.59;100.00
47240;BME280;32978;53.586;10.052;2023-02-18T13:59:35;101003.47;;;7.50;100.00
47240;BME280;32978;53.586;10.052;2023-02-18T14:04:47;101013.53;;;7.50;100.00
47240;BME280;32978;53.586;10.052;2023-02-18T14:09:44;101030.41;;;7.23;100.00
47240;BME280;32978;53.586;10.052;2023-02-18T14:14:41;101035.13;;;7.12;100.00
47240;BME280;32978;53.586;10.052;2023-02-18T14:19:38;101051.72;;;6.81;100.00
47240;BME280;32978;53.586;10.052;2023-02-18T14:24:48;101079.63;;;6.58;100.00
47240;BME280;32978;53.586;10.052;2023-02-18T14:29:45;101083.56;;;6.36;100.00
47240;BME280;32978;53.586;10.052;2023-02-18T14:35:04;101093.16;;;6.18;100.00
47240;BME280;32978;53.586;10.052;2023-02-18T14:50:02;101131.50;;;5.91;100.00
47240;BME280;32978;53.586;10.052;2023-02-18T14:55:00;101126.59;;;6.08;100.00
47240;BME280;32978;53.586;10.052;2023-02-18T14:59:58;101136.88;;;6.11;100.00
47240;BME280;32978;53.586;10.052;2023-02-18T15:05:11;101135.81;;;6.07;100.00
47240;BME280;32978;53.586;10.052;2023-02-18T15:10:14;101138.03;;;5.95;100.00
47240;BME280;32978;53.586;10.052;2023-02-18T15:15:14;101157.00;;;6.00;100.00
47240;BME280;32978;53.586;10.052;2023-02-18T15:20:11;101142.88;;;6.14;100.00
47240;BME280;32978;53.586;10.052;2023-02-18T15:25:11;101164.59;;;5.93;100.00
47240;BME280;32978;53.586;10.052;2023-02-18T15:30:27;101195.56;;;5.87;100.00
47240;BME280;32978;53.586;10.052;2023-02-18T15:35:28;101208.03;;;5.78;100.00
47240;BME280;32978;53.586;10.052;2023-02-18T15:40:30;101217.56;;;5.34;100.00
47240;BME280;32978;53.586;10.052;2023-02-18T15:45:32;101230.31;;;5.18;100.00
47240;BME280;32978;53.586;10.052;2023-02-18T15:50:32;101235.19;;;5.26;100.00
47240;BME280;32978;53.586;10.052;2023-02-18T15:55:33;101238.44;;;5.28;100.00
47240;BME280;32978;53.586;10.052;2023-02-18T16:05:43;101241.66;;;5.00;100.00
47240;BME280;32978;53.586;10.052;2023-02-18T16:10:44;101246.50;;;4.93;100.00
47240;BME280;32978;53.586;10.052;2023-02-18T16:15:44;101257.09;;;4.99;100.00
47240;BME280;32978;53.586;10.052;2023-02-18T16:20:52;101268.75;;;5.00;100.00
47240;BME280;32978;53.586;10.052;2023-02-18T16:25:49;101285.50;;;4.81;100.00
47240;BME280;32978;53.586;10.052;2023-02-18T16:30:45;101289.31;;;4.96;100.00
47240;BME280;32978;53.586;10.052;2023-02-18T16:35:42;101294.66;;;4.75;100.00
47240;BME280;32978;53.586;10.052;2023-02-18T16:40:46;101293.41;;;4.98;100.00
47240;BME280;32978;53.586;10.052;2023-02-18T16:45:48;101305.25;;;4.82;100.00
47240;BME280;32978;53.586;10.052;2023-02-18T16:50:46;101313.56;;;4.60;100.00
47240;BME280;32978;53.586;10.052;2023-02-18T16:55:44;101306.50;;;4.59;100.00
47240;BME280;32978;53.586;10.052;2023-02-18T17:00:42;101315.66;;;4.48;100.00
47240;BME280;32978;53.586;10.052;2023-02-18T17:05:38;101316.63;;;4.31;100.00
47240;BME280;32978;53.586;10.052;2023-02-18T17:10:36;101337.25;;;4.37;100.00
47240;BME280;32978;53.586;10.052;2023-02-18T17:15:34;101345.63;;;4.36;100.00
47240;BME280;32978;53.586;10.052;2023-02-18T17:20:31;101363.75;;;4.30;100.00
47240;BME280;32978;53.586;10.052;2023-02-18T17:25:35;101366.13;;;4.21;100.00
47240;BME280;32978;53.586;10.052;2023-02-18T17:30:40;101363.63;;;4.15;100.00
47240;BME280;32978;53.586;10.052;2023-02-18T17:35:37;101385.94;;;4.27;100.00
47240;BME280;32978;53.586;10.052;2023-02-18T17:40:33;101384.38;;;4.36;100.00
47240;BME280;32978;53.586;10.052;2023-02-18T17:45:39;101396.91;;;4.48;100.00
47240;BME280;32978;53.586;10.052;2023-02-18T17:50:37;101399.53;;;4.37;100.00
47240;BME280;32978;53.586;10.052;2023-02-18T17:55:34;101402.25;;;4.37;100.00
47240;BME280;32978;53.586;10.052;2023-02-18T18:00:34;101404.38;;;4.35;100.00
47240;BME280;32978;53.586;10.052;2023-02-18T18:05:36;101404.59;;;4.29;100.00
47240;BME280;32978;53.586;10.052;2023-02-18T18:10:36;101425.38;;;4.18;100.00
47240;BME280;32978;53.586;10.052;2023-02-18T18:15:41;101436.13;;;4.13;100.00
47240;BME280;32978;53.586;10.052;2023-02-18T18:20:42;101439.91;;;4.07;100.00
47240;BME280;32978;53.586;10.052;2023-02-18T18:25:42;101450.00;;;4.16;100.00
47240;BME280;32978;53.586;10.052;2023-02-18T18:30:41;101458.47;;;4.25;100.00
47240;BME280;32978;53.586;10.052;2023-02-18T18:35:38;101471.16;;;4.25;100.00
47240;BME280;32978;53.586;10.052;2023-02-18T18:40:35;101474.59;;;4.15;100.00
47240;BME280;32978;53.586;10.052;2023-02-18T18:45:35;101477.97;;;4.27;100.00
47240;BME280;32978;53.586;10.052;2023-02-18T18:50:34;101491.28;;;4.34;100.00
47240;BME280;32978;53.586;10.052;2023-02-18T18:55:36;101494.31;;;4.37;100.00
47240;BME280;32978;53.586;10.052;2023-02-18T19:00:36;101503.50;;;4.36;100.00
47240;BME280;32978;53.586;10.052;2023-02-18T19:05:35;101507.19;;;4.25;100.00
47240;BME280;32978;53.586;10.052;2023-02-18T19:10:40;101505.84;;;4.28;100.00
47240;BME280;32978;53.586;10.052;2023-02-18T19:15:37;101519.75;;;4.36;100.00
47240;BME280;32978;53.586;10.052;2023-02-18T19:20:34;101514.22;;;4.26;100.00
47240;BME280;32978;53.586;10.052;2023-02-18T19:25:31;101516.16;;;4.04;100.00
47240;BME280;32978;53.586;10.052;2023-02-18T19:30:30;101528.78;;;3.93;100.00
47240;BME280;32978;53.586;10.052;2023-02-18T19:35:28;101530.78;;;4.03;100.00
47240;BME280;32978;53.586;10.052;2023-02-18T19:40:28;101532.34;;;3.98;100.00
47240;BME280;32978;53.586;10.052;2023-02-18T19:45:25;101527.41;;;3.90;100.00
47240;BME280;32978;53.586;10.052;2023-02-18T19:50:22;101530.47;;;3.77;100.00
47240;BME280;32978;53.586;10.052;2023-02-18T19:55:19;101536.00;;;3.65;100.00
47240;BME280;32978;53.586;10.052;2023-02-18T20:00:17;101548.50;;;3.49;100.00
47240;BME280;32978;53.586;10.052;2023-02-18T20:05:14;101553.34;;;3.47;100.00
47240;BME280;32978;53.586;10.052;2023-02-18T20:10:12;101550.06;;;3.45;100.00
47240;BME280;32978;53.586;10.052;2023-02-18T20:15:09;101567.69;;;3.48;100.00
47240;BME280;32978;53.586;10.052;2023-02-18T20:20:06;101565.03;;;3.31;100.00
47240;BME280;32978;53.586;10.052;2023-02-18T20:25:03;101565.25;;;3.29;100.00
47240;BME280;32978;53.586;10.052;2023-02-18T20:30:00;101561.69;;;3.24;100.00
47240;BME280;32978;53.586;10.052;2023-02-18T20:34:57;101553.00;;;3.22;100.00
47240;BME280;32978;53.586;10.052;2023-02-18T20:39:53;101547.59;;;3.22;100.00
47240;BME280;32978;53.586;10.052;2023-02-18T20:44:50;101562.81;;;3.28;100.00
47240;BME280;32978;53.586;10.052;2023-02-18T20:49:47;101560.38;;;3.09;100.00
47240;BME280;32978;53.586;10.052;2023-02-18T20:54:44;101571.19;;;3.09;100.00
47240;BME280;32978;53.586;10.052;2023-02-18T20:59:41;101568.88;;;3.01;100.00
47240;BME280;32978;53.586;10.052;2023-02-18T21:04:37;101578.56;;;2.97;100.00
47240;BME280;32978;53.586;10.052;2023-02-18T21:09:34;101573.25;;;3.02;100.00
47240;BME280;32978;53.586;10.052;2023-02-18T21:14:31;101575.94;;;3.02;100.00
47240;BME280;32978;53.586;10.052;2023-02-18T21:19:28;101566.25;;;3.06;100.00
47240;BME280;32978;53.586;10.052;2023-02-18T21:24:24;101564.50;;;2.95;100.00
47240;BME280;32978;53.586;10.052;2023-02-18T21:29:21;101567.28;;;3.00;100.00
47240;BME280;32978;53.586;10.052;2023-02-18T21:34:18;101551.16;;;2.88;100.00
47240;BME280;32978;53.586;10.052;2023-02-18T21:39:14;101550.41;;;2.93;100.00
47240;BME280;32978;53.586;10.052;2023-02-18T21:44:11;101550.47;;;2.98;100.00
47240;BME280;32978;53.586;10.052;2023-02-18T21:49:09;101540.75;;;2.97;100.00
47240;BME280;32978;53.586;10.052;2023-02-18T21:54:07;101532.38;;;2.99;100.00
47240;BME280;32978;53.586;10.052;2023-02-18T21:59:04;101545.66;;;3.00;100.00
47240;BME280;32978;53.586;10.052;2023-02-18T22:04:00;101545.47;;;2.90;100.00
47240;BME280;32978;53.586;10.052;2023-02-18T22:08:59;101552.19;;;2.87;100.00
47240;BME280;32978;53.586;10.052;2023-02-18T22:13:56;101553.84;;;3.05;100.00
47240;BME280;32978;53.586;10.052;2023-02-18T22:18:54;101563.56;;;3.06;100.00
47240;BME280;32978;53.586;10.052;2023-02-18T22:23:50;101559.75;;;3.02;100.00
47240;BME280;32978;53.586;10.052;2023-02-18T22:28:54;101556.44;;;3.17;100.00
47240;BME280;32978;53.586;10.052;2023-02-18T22:33:51;101552.47;;;3.25;100.00
47240;BME280;32978;53.586;10.052;2023-02-18T22:38:48;101542.78;;;3.46;100.00
47240;BME280;32978;53.586;10.052;2023-02-18T22:43:45;101545.59;;;3.34;100.00
47240;BME280;32978;53.586;10.052;2023-02-18T22:48:42;101552.22;;;3.43;100.00
47240;BME280;32978;53.586;10.052;2023-02-18T22:53:41;101549.50;;;3.43;100.00
47240;BME280;32978;53.586;10.052;2023-02-18T22:58:39;101536.56;;;3.45;100.00
47240;BME280;32978;53.586;10.052;2023-02-18T23:03:36;101527.41;;;3.46;100.00
47240;BME280;32978;53.586;10.052;2023-02-18T23:08:32;101536.38;;;3.52;100.00
47240;BME280;32978;53.586;10.052;2023-02-18T23:13:29;101526.06;;;3.49;100.00
47240;BME280;32978;53.586;10.052;2023-02-18T23:18:26;101524.75;;;3.51;100.00
47240;BME280;32978;53.586;10.052;2023-02-18T23:23:22;101519.59;;;3.50;100.00
47240;BME280;32978;53.586;10.052;2023-02-18T23:28:19;101515.88;;;3.56;100.00
47240;BME280;32978;53.586;10.052;2023-02-18T23:33:15;101509.03;;;3.48;100.00
47240;BME280;32978;53.586;10.052;2023-02-18T23:38:12;101498.22;;;3.48;100.00
47240;BME280;32978;53.586;10.052;2023-02-18T23:43:08;101488.34;;;3.59;100.00
47240;BME280;32978;53.586;10.052;2023-02-18T23:48:04;101477.31;;;3.66;100.00
47240;BME280;32978;53.586;10.052;2023-02-18T23:53:01;101471.34;;;3.64;100.00
47240;BME280;32978;53.586;10.052;2023-02-18T23:57:57;101490.97;;;3.76;100.00
